sensor_id;sensor_type;location;lat;lon;timestamp;P1;durP1;ratioP1;P2;durP2;ratioP2
43706;SDS011;61348;53.392;-6.248;2022-12-18T00:01:14;23.83;;;12.15;;
43706;SDS011;61348;53.392;-6.248;2022-12-18T00:03:42;20.85;;;11.73;;
43706;SDS011;61348;53.392;-6.248;2022-12-18T00:06:11;21.00;;;10.45;;
43706;SDS011;61348;53.392;-6.248;2022-12-18T00:08:40;21.77;;;10.52;;
43706;SDS011;61348;53.392;-6.248;2022-12-18T00:11:08;18.52;;;9.93;;
43706;SDS011;61348;53.392;-6.248;2022-12-18T00:13:38;26.17;;;11.02;;
43706;SDS011;61348;53.392;-6.248;2022-12-18T00:16:06;19.85;;;11.32;;
43706;SDS011;61348;53.392;-6.248;2022-12-18T00:18:35;29.92;;;13.45;;
43706;SDS011;61348;53.392;-6.248;2022-12-18T00:21:04;27.30;;;14.60;;
43706;SDS011;61348;53.392;-6.248;2022-12-18T00:23:34;24.10;;;14.52;;
43706;SDS011;61348;53.392;-6.248;2022-12-18T00:26:03;25.52;;;15.32;;
43706;SDS011;61348;53.392;-6.248;2022-12-18T00:28:32;25.75;;;12.40;;
43706;SDS011;61348;53.392;-6.248;2022-12-18T00:31:10;17.50;;;11.73;;
43706;SDS011;61348;53.392;-6.248;2022-12-18T00:33:38;18.70;;;8.55;;
43706;SDS011;61348;53.392;-6.248;2022-12-18T00:38:37;14.43;;;8.02;;
43706;SDS011;61348;53.392;-6.248;2022-12-18T00:41:05;16.20;;;9.52;;
43706;SDS011;61348;53.392;-6.248;2022-12-18T00:43:33;17.90;;;7.63;;
43706;SDS011;61348;53.392;-6.248;2022-12-18T00:46:01;20.45;;;9.98;;
43706;SDS011;61348;53.392;-6.248;2022-12-18T00:48:28;19.10;;;9.10;;
43706;SDS011;61348;53.392;-6.248;2022-12-18T00:50:54;12.95;;;8.25;;
43706;SDS011;61348;53.392;-6.248;2022-12-18T00:53:21;23.75;;;8.90;;
43706;SDS011;61348;53.392;-6.248;2022-12-18T00:55:48;11.48;;;7.20;;
43706;SDS011;61348;53.392;-6.248;2022-12-18T00:58:16;12.55;;;7.35;;
43706;SDS011;61348;53.392;-6.248;2022-12-18T01:00:43;15.93;;;7.63;;
43706;SDS011;61348;53.392;-6.248;2022-12-18T01:03:12;14.63;;;8.02;;
43706;SDS011;61348;53.392;-6.248;2022-12-18T01:05:40;22.38;;;8.10;;
43706;SDS011;61348;53.392;-6.248;2022-12-18T01:08:08;21.98;;;10.18;;
43706;SDS011;61348;53.392;-6.248;2022-12-18T01:10:34;18.95;;;9.00;;
43706;SDS011;61348;53.392;-6.248;2022-12-18T01:13:01;24.33;;;11.48;;
43706;SDS011;61348;53.392;-6.248;2022-12-18T01:15:28;19.45;;;10.07;;
43706;SDS011;61348;53.392;-6.248;2022-12-18T01:17:54;17.75;;;9.80;;
43706;SDS011;61348;53.392;-6.248;2022-12-18T01:20:21;16.48;;;9.02;;
43706;SDS011;61348;53.392;-6.248;2022-12-18T01:22:48;17.92;;;8.25;;
43706;SDS011;61348;53.392;-6.248;2022-12-18T01:25:15;15.38;;;7.18;;
43706;SDS011;61348;53.392;-6.248;2022-12-18T01:27:41;10.93;;;5.82;;
43706;SDS011;61348;53.392;-6.248;2022-12-18T01:30:08;11.13;;;5.63;;
43706;SDS011;61348;53.392;-6.248;2022-12-18T01:32:35;11.25;;;5.07;;
43706;SDS011;61348;53.392;-6.248;2022-12-18T01:35:02;9.98;;;5.43;;
43706;SDS011;61348;53.392;-6.248;2022-12-18T01:37:29;7.43;;;3.97;;
43706;SDS011;61348;53.392;-6.248;2022-12-18T01:39:56;10.50;;;4.30;;
43706;SDS011;61348;53.392;-6.248;2022-12-18T01:42:23;7.07;;;3.67;;
43706;SDS011;61348;53.392;-6.248;2022-12-18T01:49:51;15.50;;;4.40;;
43706;SDS011;61348;53.392;-6.248;2022-12-18T01:52:19;19.40;;;6.05;;
43706;SDS011;61348;53.392;-6.248;2022-12-18T01:54:49;10.50;;;5.25;;
43706;SDS011;61348;53.392;-6.248;2022-12-18T01:57:17;12.02;;;5.57;;
43706;SDS011;61348;53.392;-6.248;2022-12-18T01:59:45;14.18;;;5.43;;
43706;SDS011;61348;53.392;-6.248;2022-12-18T02:02:16;10.55;;;4.30;;
43706;SDS011;61348;53.392;-6.248;2022-12-18T02:04:43;9.15;;;4.88;;
43706;SDS011;61348;53.392;-6.248;2022-12-18T02:18:42;14.38;;;4.53;;
43706;SDS011;61348;53.392;-6.248;2022-12-18T02:26:53;8.73;;;2.95;;
43706;SDS011;61348;53.392;-6.248;2022-12-18T02:29:27;8.48;;;1.85;;
43706;SDS011;61348;53.392;-6.248;2022-12-18T02:32:00;14.55;;;2.17;;
43706;SDS011;61348;53.392;-6.248;2022-12-18T02:34:31;5.63;;;2.03;;
43706;SDS011;61348;53.392;-6.248;2022-12-18T02:37:02;4.00;;;1.80;;
43706;SDS011;61348;53.392;-6.248;2022-12-18T02:39:32;7.60;;;2.47;;
43706;SDS011;61348;53.392;-6.248;2022-12-18T02:42:00;10.82;;;2.00;;
43706;SDS011;61348;53.392;-6.248;2022-12-18T02:44:44;13.15;;;2.20;;
43706;SDS011;61348;53.392;-6.248;2022-12-18T02:47:13;8.77;;;2.22;;
43706;SDS011;61348;53.392;-6.248;2022-12-18T03:02:57;14.55;;;3.63;;
43706;SDS011;61348;53.392;-6.248;2022-12-18T03:05:36;16.42;;;3.35;;
43706;SDS011;61348;53.392;-6.248;2022-12-18T03:08:09;8.45;;;2.55;;
43706;SDS011;61348;53.392;-6.248;2022-12-18T03:11:03;17.63;;;2.92;;
43706;SDS011;61348;53.392;-6.248;2022-12-18T03:13:31;20.50;;;4.93;;
43706;SDS011;61348;53.392;-6.248;2022-12-18T03:21:05;15.50;;;2.38;;
43706;SDS011;61348;53.392;-6.248;2022-12-18T03:23:38;17.42;;;2.78;;
43706;SDS011;61348;53.392;-6.248;2022-12-18T03:26:10;6.80;;;2.50;;
43706;SDS011;61348;53.392;-6.248;2022-12-18T03:28:43;9.88;;;2.97;;
43706;SDS011;61348;53.392;-6.248;2022-12-18T03:31:15;7.78;;;2.90;;
43706;SDS011;61348;53.392;-6.248;2022-12-18T03:33:52;18.48;;;3.30;;
43706;SDS011;61348;53.392;-6.248;2022-12-18T03:36:22;8.27;;;4.25;;
43706;SDS011;61348;53.392;-6.248;2022-12-18T03:38:50;14.52;;;2.95;;
43706;SDS011;61348;53.392;-6.248;2022-12-18T03:44:04;12.07;;;4.75;;
43706;SDS011;61348;53.392;-6.248;2022-12-18T03:49:21;9.07;;;2.80;;
43706;SDS011;61348;53.392;-6.248;2022-12-18T03:54:44;8.80;;;4.32;;
43706;SDS011;61348;53.392;-6.248;2022-12-18T03:57:17;12.90;;;5.57;;
43706;SDS011;61348;53.392;-6.248;2022-12-18T03:59:49;17.50;;;4.55;;
43706;SDS011;61348;53.392;-6.248;2022-12-18T04:02:19;16.95;;;4.72;;
43706;SDS011;61348;53.392;-6.248;2022-12-18T04:04:49;17.10;;;5.53;;
43706;SDS011;61348;53.392;-6.248;2022-12-18T04:07:19;10.73;;;4.70;;
43706;SDS011;61348;53.392;-6.248;2022-12-18T04:09:48;8.48;;;5.45;;
43706;SDS011;61348;53.392;-6.248;2022-12-18T04:12:17;10.80;;;5.47;;
43706;SDS011;61348;53.392;-6.248;2022-12-18T04:14:44;8.73;;;6.90;;
43706;SDS011;61348;53.392;-6.248;2022-12-18T04:17:11;14.05;;;5.25;;
43706;SDS011;61348;53.392;-6.248;2022-12-18T04:19:38;11.38;;;5.68;;
43706;SDS011;61348;53.392;-6.248;2022-12-18T04:22:06;16.00;;;7.03;;
43706;SDS011;61348;53.392;-6.248;2022-12-18T04:24:33;20.60;;;6.80;;
43706;SDS011;61348;53.392;-6.248;2022-12-18T04:26:59;14.15;;;6.78;;
43706;SDS011;61348;53.392;-6.248;2022-12-18T04:29:28;22.52;;;6.63;;
43706;SDS011;61348;53.392;-6.248;2022-12-18T04:31:55;17.20;;;6.78;;
43706;SDS011;61348;53.392;-6.248;2022-12-18T04:34:22;15.50;;;7.80;;
43706;SDS011;61348;53.392;-6.248;2022-12-18T04:36:48;21.60;;;7.60;;
43706;SDS011;61348;53.392;-6.248;2022-12-18T04:39:15;16.77;;;7.97;;
43706;SDS011;61348;53.392;-6.248;2022-12-18T04:41:45;21.88;;;7.25;;
43706;SDS011;61348;53.392;-6.248;2022-12-18T04:44:11;18.52;;;6.88;;
43706;SDS011;61348;53.392;-6.248;2022-12-18T04:46:38;13.27;;;6.68;;
43706;SDS011;61348;53.392;-6.248;2022-12-18T04:49:05;23.20;;;8.00;;
43706;SDS011;61348;53.392;-6.248;2022-12-18T04:51:32;14.88;;;7.28;;
43706;SDS011;61348;53.392;-6.248;2022-12-18T04:53:58;30.30;;;7.07;;
43706;SDS011;61348;53.392;-6.248;2022-12-18T04:56:25;18.90;;;7.55;;
43706;SDS011;61348;53.392;-6.248;2022-12-18T04:58:51;28.55;;;8.15;;
43706;SDS011;61348;53.392;-6.248;2022-12-18T05:01:18;19.25;;;5.88;;
43706;SDS011;61348;53.392;-6.248;2022-12-18T05:03:45;21.15;;;7.63;;
43706;SDS011;61348;53.392;-6.248;2022-12-18T05:06:12;18.98;;;7.03;;
43706;SDS011;61348;53.392;-6.248;2022-12-18T05:08:42;25.42;;;7.57;;
43706;SDS011;61348;53.392;-6.248;2022-12-18T05:11:11;24.55;;;8.90;;
43706;SDS011;61348;53.392;-6.248;2022-12-18T05:13:42;18.80;;;5.72;;
43706;SDS011;61348;53.392;-6.248;2022-12-18T05:16:09;21.52;;;7.05;;
43706;SDS011;61348;53.392;-6.248;2022-12-18T05:18:37;26.77;;;7.00;;
43706;SDS011;61348;53.392;-6.248;2022-12-18T05:21:03;24.15;;;7.25;;
43706;SDS011;61348;53.392;-6.248;2022-12-18T05:23:31;24.90;;;6.95;;
43706;SDS011;61348;53.392;-6.248;2022-12-18T05:26:01;18.80;;;5.95;;
43706;SDS011;61348;53.392;-6.248;2022-12-18T05:28:31;25.00;;;6.07;;
43706;SDS011;61348;53.392;-6.248;2022-12-18T05:31:00;18.65;;;7.28;;
43706;SDS011;61348;53.392;-6.248;2022-12-18T05:33:29;11.57;;;5.25;;
43706;SDS011;61348;53.392;-6.248;2022-12-18T05:35:59;26.05;;;8.63;;
43706;SDS011;61348;53.392;-6.248;2022-12-18T05:38:29;19.35;;;6.72;;
43706;SDS011;61348;53.392;-6.248;2022-12-18T05:40:57;28.42;;;6.53;;
43706;SDS011;61348;53.392;-6.248;2022-12-18T05:43:26;17.13;;;6.35;;
43706;SDS011;61348;53.392;-6.248;2022-12-18T05:45:53;13.80;;;6.03;;
43706;SDS011;61348;53.392;-6.248;2022-12-18T05:48:21;15.95;;;5.45;;
43706;SDS011;61348;53.392;-6.248;2022-12-18T05:50:49;13.65;;;5.93;;
43706;SDS011;61348;53.392;-6.248;2022-12-18T05:53:17;17.33;;;5.45;;
43706;SDS011;61348;53.392;-6.248;2022-12-18T05:55:46;19.27;;;6.95;;
43706;SDS011;61348;53.392;-6.248;2022-12-18T05:58:14;12.07;;;5.05;;
43706;SDS011;61348;53.392;-6.248;2022-12-18T06:00:44;16.23;;;5.63;;
43706;SDS011;61348;53.392;-6.248;2022-12-18T06:03:12;15.85;;;5.13;;
43706;SDS011;61348;53.392;-6.248;2022-12-18T06:05:40;16.63;;;4.95;;
43706;SDS011;61348;53.392;-6.248;2022-12-18T06:08:09;13.85;;;7.00;;
43706;SDS011;61348;53.392;-6.248;2022-12-18T06:10:36;21.92;;;5.93;;
43706;SDS011;61348;53.392;-6.248;2022-12-18T06:13:04;17.45;;;5.63;;
43706;SDS011;61348;53.392;-6.248;2022-12-18T06:15:32;11.50;;;4.57;;
43706;SDS011;61348;53.392;-6.248;2022-12-18T06:18:00;18.15;;;5.68;;
43706;SDS011;61348;53.392;-6.248;2022-12-18T06:20:27;15.85;;;6.15;;
43706;SDS011;61348;53.392;-6.248;2022-12-18T06:22:59;18.50;;;5.90;;
43706;SDS011;61348;53.392;-6.248;2022-12-18T06:25:26;16.90;;;6.43;;
43706;SDS011;61348;53.392;-6.248;2022-12-18T06:28:01;18.55;;;6.20;;
43706;SDS011;61348;53.392;-6.248;2022-12-18T06:30:27;14.80;;;5.45;;
43706;SDS011;61348;53.392;-6.248;2022-12-18T06:32:54;21.45;;;5.70;;
43706;SDS011;61348;53.392;-6.248;2022-12-18T06:35:22;12.85;;;6.22;;
43706;SDS011;61348;53.392;-6.248;2022-12-18T06:37:49;15.85;;;5.30;;
43706;SDS011;61348;53.392;-6.248;2022-12-18T06:40:16;16.00;;;5.10;;
43706;SDS011;61348;53.392;-6.248;2022-12-18T06:42:43;15.85;;;5.55;;
43706;SDS011;61348;53.392;-6.248;2022-12-18T06:45:09;11.30;;;3.80;;
43706;SDS011;61348;53.392;-6.248;2022-12-18T06:47:37;8.48;;;4.40;;
43706;SDS011;61348;53.392;-6.248;2022-12-18T06:50:04;11.77;;;3.78;;
43706;SDS011;61348;53.392;-6.248;2022-12-18T06:52:32;10.38;;;3.55;;
43706;SDS011;61348;53.392;-6.248;2022-12-18T06:54:59;12.65;;;3.97;;
43706;SDS011;61348;53.392;-6.248;2022-12-18T06:57:26;8.75;;;3.30;;
43706;SDS011;61348;53.392;-6.248;2022-12-18T06:59:53;7.55;;;2.88;;
43706;SDS011;61348;53.392;-6.248;2022-12-18T07:02:20;16.85;;;4.28;;
43706;SDS011;61348;53.392;-6.248;2022-12-18T07:04:47;14.32;;;3.53;;
43706;SDS011;61348;53.392;-6.248;2022-12-18T07:07:18;11.88;;;3.30;;
43706;SDS011;61348;53.392;-6.248;2022-12-18T07:09:44;11.10;;;2.47;;
43706;SDS011;61348;53.392;-6.248;2022-12-18T07:12:11;10.38;;;3.28;;
43706;SDS011;61348;53.392;-6.248;2022-12-18T07:14:37;10.65;;;3.58;;
43706;SDS011;61348;53.392;-6.248;2022-12-18T07:17:04;10.52;;;2.47;;
43706;SDS011;61348;53.392;-6.248;2022-12-18T07:19:32;9.40;;;2.10;;
43706;SDS011;61348;53.392;-6.248;2022-12-18T07:21:59;13.25;;;3.20;;
43706;SDS011;61348;53.392;-6.248;2022-12-18T07:24:26;7.63;;;2.50;;
43706;SDS011;61348;53.392;-6.248;2022-12-18T07:26:53;10.73;;;3.70;;
43706;SDS011;61348;53.392;-6.248;2022-12-18T07:29:20;6.65;;;2.75;;
43706;SDS011;61348;53.392;-6.248;2022-12-18T07:31:47;6.57;;;3.22;;
43706;SDS011;61348;53.392;-6.248;2022-12-18T07:34:14;7.68;;;2.80;;
43706;SDS011;61348;53.392;-6.248;2022-12-18T07:36:41;12.90;;;3.63;;
43706;SDS011;61348;53.392;-6.248;2022-12-18T07:39:10;10.32;;;3.70;;
43706;SDS011;61348;53.392;-6.248;2022-12-18T07:41:37;8.70;;;3.55;;
43706;SDS011;61348;53.392;-6.248;2022-12-18T07:44:11;7.95;;;4.45;;
43706;SDS011;61348;53.392;-6.248;2022-12-18T07:46:38;16.40;;;4.72;;
43706;SDS011;61348;53.392;-6.248;2022-12-18T07:49:05;15.13;;;4.50;;
43706;SDS011;61348;53.392;-6.248;2022-12-18T07:51:32;11.00;;;4.18;;
43706;SDS011;61348;53.392;-6.248;2022-12-18T07:53:58;8.68;;;3.85;;
43706;SDS011;61348;53.392;-6.248;2022-12-18T07:56:25;17.48;;;5.95;;
43706;SDS011;61348;53.392;-6.248;2022-12-18T07:58:54;15.48;;;6.43;;
43706;SDS011;61348;53.392;-6.248;2022-12-18T08:01:20;9.38;;;4.43;;
43706;SDS011;61348;53.392;-6.248;2022-12-18T08:03:47;13.23;;;5.07;;
43706;SDS011;61348;53.392;-6.248;2022-12-18T08:06:17;12.13;;;4.70;;
43706;SDS011;61348;53.392;-6.248;2022-12-18T08:08:46;16.48;;;4.78;;
43706;SDS011;61348;53.392;-6.248;2022-12-18T08:11:13;11.15;;;5.20;;
43706;SDS011;61348;53.392;-6.248;2022-12-18T08:13:40;19.17;;;5.32;;
43706;SDS011;61348;53.392;-6.248;2022-12-18T08:16:07;14.15;;;4.97;;
43706;SDS011;61348;53.392;-6.248;2022-12-18T08:18:35;15.98;;;5.55;;
43706;SDS011;61348;53.392;-6.248;2022-12-18T08:21:13;17.85;;;6.22;;
43706;SDS011;61348;53.392;-6.248;2022-12-18T08:23:42;13.18;;;5.82;;
43706;SDS011;61348;53.392;-6.248;2022-12-18T08:26:13;17.88;;;5.15;;
43706;SDS011;61348;53.392;-6.248;2022-12-18T08:28:40;15.18;;;5.32;;
43706;SDS011;61348;53.392;-6.248;2022-12-18T08:31:07;21.30;;;7.50;;
43706;SDS011;61348;53.392;-6.248;2022-12-18T08:33:34;13.02;;;5.97;;
43706;SDS011;61348;53.392;-6.248;2022-12-18T08:36:03;19.83;;;6.35;;
43706;SDS011;61348;53.392;-6.248;2022-12-18T08:38:33;15.73;;;7.25;;
43706;SDS011;61348;53.392;-6.248;2022-12-18T08:41:07;14.57;;;6.18;;
43706;SDS011;61348;53.392;-6.248;2022-12-18T08:43:37;21.35;;;6.25;;
43706;SDS011;61348;53.392;-6.248;2022-12-18T08:46:24;20.33;;;6.15;;
43706;SDS011;61348;53.392;-6.248;2022-12-18T08:48:53;20.05;;;6.45;;
43706;SDS011;61348;53.392;-6.248;2022-12-18T08:51:21;15.65;;;6.28;;
43706;SDS011;61348;53.392;-6.248;2022-12-18T08:53:48;22.90;;;6.05;;
43706;SDS011;61348;53.392;-6.248;2022-12-18T08:56:15;20.92;;;7.65;;
43706;SDS011;61348;53.392;-6.248;2022-12-18T08:58:43;18.73;;;5.90;;
43706;SDS011;61348;53.392;-6.248;2022-12-18T09:01:11;18.60;;;7.28;;
43706;SDS011;61348;53.392;-6.248;2022-12-18T09:03:38;21.05;;;7.80;;
43706;SDS011;61348;53.392;-6.248;2022-12-18T09:06:08;17.23;;;7.50;;
43706;SDS011;61348;53.392;-6.248;2022-12-18T09:08:35;14.50;;;7.43;;
43706;SDS011;61348;53.392;-6.248;2022-12-18T09:11:03;19.70;;;7.55;;
43706;SDS011;61348;53.392;-6.248;2022-12-18T09:13:30;12.98;;;7.03;;
43706;SDS011;61348;53.392;-6.248;2022-12-18T09:15:57;18.33;;;8.25;;
43706;SDS011;61348;53.392;-6.248;2022-12-18T09:18:24;22.80;;;7.18;;
43706;SDS011;61348;53.392;-6.248;2022-12-18T09:20:51;21.30;;;5.88;;
43706;SDS011;61348;53.392;-6.248;2022-12-18T09:23:19;19.75;;;6.25;;
43706;SDS011;61348;53.392;-6.248;2022-12-18T09:25:47;28.42;;;8.70;;
43706;SDS011;61348;53.392;-6.248;2022-12-18T09:28:15;17.88;;;7.43;;
43706;SDS011;61348;53.392;-6.248;2022-12-18T09:30:45;21.60;;;6.35;;
43706;SDS011;61348;53.392;-6.248;2022-12-18T09:33:14;20.67;;;7.85;;
43706;SDS011;61348;53.392;-6.248;2022-12-18T09:35:41;25.45;;;7.40;;
43706;SDS011;61348;53.392;-6.248;2022-12-18T09:38:13;21.50;;;8.88;;
43706;SDS011;61348;53.392;-6.248;2022-12-18T09:40:52;20.92;;;7.72;;
43706;SDS011;61348;53.392;-6.248;2022-12-18T09:43:23;20.73;;;7.43;;
43706;SDS011;61348;53.392;-6.248;2022-12-18T09:45:55;22.35;;;6.03;;
43706;SDS011;61348;53.392;-6.248;2022-12-18T09:48:31;23.38;;;7.45;;
43706;SDS011;61348;53.392;-6.248;2022-12-18T09:51:04;20.05;;;6.60;;
43706;SDS011;61348;53.392;-6.248;2022-12-18T09:53:38;16.85;;;6.40;;
43706;SDS011;61348;53.392;-6.248;2022-12-18T09:56:06;12.82;;;5.28;;
43706;SDS011;61348;53.392;-6.248;2022-12-18T09:58:47;14.32;;;5.25;;
43706;SDS011;61348;53.392;-6.248;2022-12-18T10:01:21;19.77;;;6.03;;
43706;SDS011;61348;53.392;-6.248;2022-12-18T10:03:50;11.27;;;5.85;;
43706;SDS011;61348;53.392;-6.248;2022-12-18T10:06:29;12.05;;;6.30;;
43706;SDS011;61348;53.392;-6.248;2022-12-18T10:14:52;13.68;;;6.30;;
43706;SDS011;61348;53.392;-6.248;2022-12-18T10:17:56;11.95;;;4.55;;
43706;SDS011;61348;53.392;-6.248;2022-12-18T10:20:40;11.55;;;5.43;;
43706;SDS011;61348;53.392;-6.248;2022-12-18T10:25:53;14.63;;;5.93;;
43706;SDS011;61348;53.392;-6.248;2022-12-18T10:28:31;17.52;;;5.70;;
43706;SDS011;61348;53.392;-6.248;2022-12-18T10:30:59;14.90;;;6.13;;
43706;SDS011;61348;53.392;-6.248;2022-12-18T10:33:30;12.43;;;5.38;;
43706;SDS011;61348;53.392;-6.248;2022-12-18T10:35:59;12.77;;;6.28;;
43706;SDS011;61348;53.392;-6.248;2022-12-18T10:38:30;21.45;;;7.18;;
43706;SDS011;61348;53.392;-6.248;2022-12-18T10:43:34;25.50;;;7.53;;
43706;SDS011;61348;53.392;-6.248;2022-12-18T10:51:09;16.08;;;5.85;;
43706;SDS011;61348;53.392;-6.248;2022-12-18T10:53:38;16.02;;;7.15;;
43706;SDS011;61348;53.392;-6.248;2022-12-18T10:56:08;26.92;;;10.02;;
43706;SDS011;61348;53.392;-6.248;2022-12-18T10:58:36;23.83;;;10.23;;
43706;SDS011;61348;53.392;-6.248;2022-12-18T11:06:17;22.33;;;8.30;;
43706;SDS011;61348;53.392;-6.248;2022-12-18T11:09:00;31.58;;;11.07;;
43706;SDS011;61348;53.392;-6.248;2022-12-18T11:11:39;31.90;;;10.40;;
43706;SDS011;61348;53.392;-6.248;2022-12-18T11:14:13;26.88;;;9.73;;
43706;SDS011;61348;53.392;-6.248;2022-12-18T11:16:46;21.35;;;8.30;;
43706;SDS011;61348;53.392;-6.248;2022-12-18T11:19:37;17.83;;;8.02;;
43706;SDS011;61348;53.392;-6.248;2022-12-18T11:25:01;25.45;;;10.27;;
43706;SDS011;61348;53.392;-6.248;2022-12-18T11:27:49;25.63;;;8.50;;
43706;SDS011;61348;53.392;-6.248;2022-12-18T11:30:37;22.17;;;8.52;;
43706;SDS011;61348;53.392;-6.248;2022-12-18T11:38:32;21.88;;;7.30;;
43706;SDS011;61348;53.392;-6.248;2022-12-18T11:44:27;22.35;;;7.35;;
43706;SDS011;61348;53.392;-6.248;2022-12-18T11:47:00;22.92;;;8.27;;
43706;SDS011;61348;53.392;-6.248;2022-12-18T11:49:35;23.02;;;6.03;;
43706;SDS011;61348;53.392;-6.248;2022-12-18T11:54:51;21.08;;;6.07;;
43706;SDS011;61348;53.392;-6.248;2022-12-18T11:57:28;18.40;;;6.38;;
43706;SDS011;61348;53.392;-6.248;2022-12-18T12:00:19;16.00;;;6.25;;
43706;SDS011;61348;53.392;-6.248;2022-12-18T12:22:13;22.33;;;5.43;;
43706;SDS011;61348;53.392;-6.248;2022-12-18T12:30:35;12.18;;;4.25;;
43706;SDS011;61348;53.392;-6.248;2022-12-18T12:33:28;16.90;;;5.13;;
43706;SDS011;61348;53.392;-6.248;2022-12-18T12:36:28;12.95;;;3.35;;
43706;SDS011;61348;53.392;-6.248;2022-12-18T12:39:05;11.95;;;5.28;;
43706;SDS011;61348;53.392;-6.248;2022-12-18T12:41:36;17.05;;;5.28;;
43706;SDS011;61348;53.392;-6.248;2022-12-18T12:44:27;18.92;;;5.85;;
43706;SDS011;61348;53.392;-6.248;2022-12-18T12:47:06;22.52;;;6.40;;
43706;SDS011;61348;53.392;-6.248;2022-12-18T12:49:44;25.48;;;9.27;;
43706;SDS011;61348;53.392;-6.248;2022-12-18T12:52:30;27.58;;;9.73;;
43706;SDS011;61348;53.392;-6.248;2022-12-18T12:55:02;18.10;;;6.85;;
43706;SDS011;61348;53.392;-6.248;2022-12-18T12:57:40;19.73;;;8.63;;
43706;SDS011;61348;53.392;-6.248;2022-12-18T13:00:16;19.15;;;4.82;;
43706;SDS011;61348;53.392;-6.248;2022-12-18T13:02:59;18.08;;;5.18;;
43706;SDS011;61348;53.392;-6.248;2022-12-18T13:05:34;16.38;;;6.28;;
43706;SDS011;61348;53.392;-6.248;2022-12-18T13:08:09;17.60;;;6.00;;
43706;SDS011;61348;53.392;-6.248;2022-12-18T13:10:38;12.23;;;4.82;;
43706;SDS011;61348;53.392;-6.248;2022-12-18T13:13:10;12.27;;;4.28;;
43706;SDS011;61348;53.392;-6.248;2022-12-18T13:16:03;10.82;;;3.20;;
43706;SDS011;61348;53.392;-6.248;2022-12-18T13:18:32;9.32;;;3.50;;
43706;SDS011;61348;53.392;-6.248;2022-12-18T13:23:34;13.70;;;3.70;;
43706;SDS011;61348;53.392;-6.248;2022-12-18T13:31:00;10.02;;;4.07;;
43706;SDS011;61348;53.392;-6.248;2022-12-18T13:36:43;12.52;;;4.63;;
43706;SDS011;61348;53.392;-6.248;2022-12-18T13:47:05;20.98;;;5.35;;
43706;SDS011;61348;53.392;-6.248;2022-12-18T13:49:52;18.30;;;5.63;;
43706;SDS011;61348;53.392;-6.248;2022-12-18T13:52:23;17.13;;;7.03;;
43706;SDS011;61348;53.392;-6.248;2022-12-18T13:54:53;18.40;;;6.07;;
43706;SDS011;61348;53.392;-6.248;2022-12-18T13:59:57;17.20;;;7.38;;
43706;SDS011;61348;53.392;-6.248;2022-12-18T14:02:26;15.88;;;7.32;;
43706;SDS011;61348;53.392;-6.248;2022-12-18T14:04:55;20.23;;;6.55;;
43706;SDS011;61348;53.392;-6.248;2022-12-18T14:07:26;19.60;;;6.80;;
43706;SDS011;61348;53.392;-6.248;2022-12-18T14:10:11;13.45;;;5.43;;
43706;SDS011;61348;53.392;-6.248;2022-12-18T14:13:08;16.42;;;7.05;;
43706;SDS011;61348;53.392;-6.248;2022-12-18T14:15:44;18.67;;;7.50;;
43706;SDS011;61348;53.392;-6.248;2022-12-18T14:20:41;15.15;;;6.30;;
43706;SDS011;61348;53.392;-6.248;2022-12-18T14:29:00;18.77;;;5.55;;
43706;SDS011;61348;53.392;-6.248;2022-12-18T14:31:44;12.48;;;4.05;;
43706;SDS011;61348;53.392;-6.248;2022-12-18T14:34:17;16.52;;;3.88;;
43706;SDS011;61348;53.392;-6.248;2022-12-18T14:36:52;10.82;;;3.15;;
43706;SDS011;61348;53.392;-6.248;2022-12-18T14:39:20;11.07;;;3.70;;
43706;SDS011;61348;53.392;-6.248;2022-12-18T14:41:50;19.02;;;5.40;;
43706;SDS011;61348;53.392;-6.248;2022-12-18T14:44:18;12.73;;;3.80;;
43706;SDS011;61348;53.392;-6.248;2022-12-18T14:46:45;20.67;;;5.75;;
43706;SDS011;61348;53.392;-6.248;2022-12-18T14:49:22;14.55;;;3.83;;
43706;SDS011;61348;53.392;-6.248;2022-12-18T14:51:55;9.85;;;3.45;;
43706;SDS011;61348;53.392;-6.248;2022-12-18T14:54:26;12.68;;;4.20;;
43706;SDS011;61348;53.392;-6.248;2022-12-18T14:57:04;17.63;;;6.68;;
43706;SDS011;61348;53.392;-6.248;2022-12-18T14:59:51;21.73;;;6.20;;
43706;SDS011;61348;53.392;-6.248;2022-12-18T15:02:23;18.15;;;6.35;;
43706;SDS011;61348;53.392;-6.248;2022-12-18T15:05:02;37.50;;;9.25;;
43706;SDS011;61348;53.392;-6.248;2022-12-18T15:07:42;24.65;;;6.03;;
43706;SDS011;61348;53.392;-6.248;2022-12-18T15:12:44;18.42;;;7.50;;
43706;SDS011;61348;53.392;-6.248;2022-12-18T15:21:09;19.45;;;5.60;;
43706;SDS011;61348;53.392;-6.248;2022-12-18T15:26:11;25.67;;;8.20;;
43706;SDS011;61348;53.392;-6.248;2022-12-18T15:36:18;26.02;;;9.23;;
43706;SDS011;61348;53.392;-6.248;2022-12-18T15:38:53;29.55;;;8.65;;
43706;SDS011;61348;53.392;-6.248;2022-12-18T15:41:31;40.55;;;10.98;;
43706;SDS011;61348;53.392;-6.248;2022-12-18T15:44:01;43.65;;;10.77;;
43706;SDS011;61348;53.392;-6.248;2022-12-18T15:46:29;43.55;;;9.85;;
43706;SDS011;61348;53.392;-6.248;2022-12-18T15:48:57;47.60;;;13.43;;
43706;SDS011;61348;53.392;-6.248;2022-12-18T15:51:34;51.05;;;13.32;;
43706;SDS011;61348;53.392;-6.248;2022-12-18T15:54:05;54.35;;;11.13;;
43706;SDS011;61348;53.392;-6.248;2022-12-18T15:56:37;45.60;;;11.65;;
43706;SDS011;61348;53.392;-6.248;2022-12-18T15:59:23;64.28;;;13.48;;
43706;SDS011;61348;53.392;-6.248;2022-12-18T16:01:50;42.10;;;10.40;;
43706;SDS011;61348;53.392;-6.248;2022-12-18T16:04:20;103.88;;;16.50;;
43706;SDS011;61348;53.392;-6.248;2022-12-18T16:06:48;46.72;;;14.68;;
43706;SDS011;61348;53.392;-6.248;2022-12-18T16:09:35;52.80;;;16.40;;
43706;SDS011;61348;53.392;-6.248;2022-12-18T16:12:02;36.85;;;17.73;;
43706;SDS011;61348;53.392;-6.248;2022-12-18T16:14:32;40.70;;;12.60;;
43706;SDS011;61348;53.392;-6.248;2022-12-18T16:17:00;27.48;;;13.18;;
43706;SDS011;61348;53.392;-6.248;2022-12-18T16:19:28;57.75;;;19.58;;
43706;SDS011;61348;53.392;-6.248;2022-12-18T16:21:56;48.28;;;17.80;;
43706;SDS011;61348;53.392;-6.248;2022-12-18T16:24:25;54.65;;;15.65;;
43706;SDS011;61348;53.392;-6.248;2022-12-18T16:26:54;65.03;;;17.40;;
43706;SDS011;61348;53.392;-6.248;2022-12-18T16:29:22;56.85;;;16.88;;
43706;SDS011;61348;53.392;-6.248;2022-12-18T16:31:53;47.55;;;15.25;;
43706;SDS011;61348;53.392;-6.248;2022-12-18T16:34:21;40.65;;;13.63;;
43706;SDS011;61348;53.392;-6.248;2022-12-18T16:36:54;44.83;;;17.33;;
43706;SDS011;61348;53.392;-6.248;2022-12-18T16:39:31;52.80;;;20.67;;
43706;SDS011;61348;53.392;-6.248;2022-12-18T16:42:01;61.95;;;21.13;;
43706;SDS011;61348;53.392;-6.248;2022-12-18T16:44:31;55.25;;;21.73;;
43706;SDS011;61348;53.392;-6.248;2022-12-18T16:46:59;62.28;;;20.00;;
43706;SDS011;61348;53.392;-6.248;2022-12-18T16:49:28;64.30;;;20.75;;
43706;SDS011;61348;53.392;-6.248;2022-12-18T16:51:55;56.38;;;22.15;;
43706;SDS011;61348;53.392;-6.248;2022-12-18T16:54:22;59.63;;;23.98;;
43706;SDS011;61348;53.392;-6.248;2022-12-18T16:56:49;82.97;;;34.17;;
43706;SDS011;61348;53.392;-6.248;2022-12-18T16:59:17;68.63;;;28.67;;
43706;SDS011;61348;53.392;-6.248;2022-12-18T17:01:45;79.32;;;31.88;;
43706;SDS011;61348;53.392;-6.248;2022-12-18T17:04:13;72.70;;;27.70;;
43706;SDS011;61348;53.392;-6.248;2022-12-18T17:06:42;67.50;;;28.75;;
43706;SDS011;61348;53.392;-6.248;2022-12-18T17:09:11;94.93;;;40.63;;
43706;SDS011;61348;53.392;-6.248;2022-12-18T17:11:42;74.25;;;37.03;;
43706;SDS011;61348;53.392;-6.248;2022-12-18T17:14:11;71.05;;;27.45;;
43706;SDS011;61348;53.392;-6.248;2022-12-18T17:16:40;66.82;;;30.00;;
43706;SDS011;61348;53.392;-6.248;2022-12-18T17:19:08;51.33;;;22.08;;
43706;SDS011;61348;53.392;-6.248;2022-12-18T17:21:46;60.03;;;22.77;;